Time;durP1;ratioP1;P1;durP2;ratioP2;P2;SDS_P1;SDS_P2;PMS_P1;PMS_P2;Temp;Humidity;BMP_temperature;BMP_pressure;BME280_temperature;BME280_humidity;BME280_pressure;Samples;Min_cycle;Max_cycle;Signal;HPM_P1;HPM_P2
2022/01/28 00:01:53;;;;;;;5.60;2.93;;;;;;;;;;5052581;28;20490;-64
2022/01/28 00:04:19;;;;;;;4.90;3.50;;;;;;;;;;5052485;28;20400;-66
2022/01/28 00:06:45;;;;;;;8.63;3.20;;;;;;;;;;5052631;28;20423;-66
2022/01/28 00:09:11;;;;;;;3.70;3.40;;;;;;;;;;5052107;28;20521;-62
2022/01/28 00:11:37;;;;;;;3.93;3.10;;;;;;;;;;5051214;28;20916;-62
2022/01/28 00:38:37;;;;;;;8.33;3.63;;;;;;;;;;5052016;28;20446;-64
2022/01/28 00:41:03;;;;;;;5.73;3.10;;;;;;;;;;5052292;28;20443;-59
2022/01/28 00:43:29;;;;;;;5.43;4.00;;;;;;;;;;5051970;28;20423;-57
2022/01/28 00:45:55;;;;;;;8.47;3.60;;;;;;;;;;5051842;28;20475;-60
2022/01/28 00:48:21;;;;;;;3.70;3.30;;;;;;;;;;5052245;28;20440;-59
2022/01/28 00:50:47;;;;;;;7.50;3.47;;;;;;;;;;5052140;28;20457;-59
2022/01/28 00:53:13;;;;;;;6.33;2.63;;;;;;;;;;5051998;28;20410;-59
2022/01/28 00:55:39;;;;;;;3.00;2.90;;;;;;;;;;5051940;28;20447;-58
2022/01/28 00:58:05;;;;;;;5.63;3.27;;;;;;;;;;5051798;28;20403;-58
2022/01/28 01:00:32;;;;;;;4.93;3.30;;;;;;;;;;5053286;28;20470;-57
2022/01/28 01:02:58;;;;;;;10.00;3.93;;;;;;;;;;5055391;28;20447;-58
2022/01/28 01:05:24;;;;;;;7.83;3.23;;;;;;;;;;5055366;28;20510;-56
2022/01/28 01:07:50;;;;;;;8.73;4.47;;;;;;;;;;5055219;28;20416;-57
2022/01/28 01:10:16;;;;;;;7.07;3.60;;;;;;;;;;5055692;28;20561;-58
2022/01/28 01:12:45;;;;;;;5.77;3.30;;;;;;;;;;5055255;28;20884;-61
2022/01/28 01:15:14;;;;;;;3.73;3.30;;;;;;;;;;5055092;28;20892;-61
2022/01/28 01:17:47;;;;;;;3.33;2.73;;;;;;;;;;5055408;28;20423;-58
2022/01/28 01:20:21;;;;;;;4.50;3.80;;;;;;;;;;5055135;28;20408;-59
2022/01/28 01:23:24;;;;;;;3.10;2.90;;;;;;;;;;5055156;28;20479;-59
2022/01/28 01:28:11;;;;;;;4.43;3.63;;;;;;;;;;5055244;28;20442;-57
2022/01/28 01:30:40;;;;;;;5.83;3.40;;;;;;;;;;5055146;28;20422;-58
2022/01/28 01:33:07;;;;;;;3.13;2.97;;;;;;;;;;5054835;28;20977;-58
2022/01/28 01:35:33;;;;;;;3.97;3.23;;;;;;;;;;5053557;28;20506;-59
2022/01/28 01:37:59;;;;;;;6.93;3.93;;;;;;;;;;5054906;28;20840;-59
2022/01/28 01:40:31;;;;;;;3.97;3.50;;;;;;;;;;5054709;28;20451;-59
2022/01/28 01:43:15;;;;;;;3.17;2.87;;;;;;;;;;5054663;28;20926;-57
2022/01/28 01:46:09;;;;;;;3.80;3.50;;;;;;;;;;5053367;28;20580;-57
2022/01/28 01:54:05;;;;;;;3.00;2.83;;;;;;;;;;5054842;28;21043;-59
2022/01/28 01:56:33;;;;;;;7.53;3.70;;;;;;;;;;5054634;28;20553;-58
2022/01/28 01:58:59;;;;;;;3.00;2.80;;;;;;;;;;5054452;28;20411;-57
2022/01/28 02:01:25;;;;;;;3.60;3.40;;;;;;;;;;5054312;28;20414;-57
2022/01/28 02:03:51;;;;;;;4.97;3.40;;;;;;;;;;5053335;28;20447;-58
2022/01/28 02:06:21;;;;;;;7.03;3.80;;;;;;;;;;5054360;28;20470;-58
2022/01/28 02:08:47;;;;;;;3.00;2.90;;;;;;;;;;5054351;28;20411;-57
2022/01/28 02:11:13;;;;;;;5.03;3.20;;;;;;;;;;5053740;28;20415;-58
2022/01/28 02:13:41;;;;;;;3.00;2.90;;;;;;;;;;5054042;28;20473;-57
2022/01/28 02:16:08;;;;;;;3.93;3.23;;;;;;;;;;5054015;28;20923;-61
2022/01/28 02:18:34;;;;;;;5.03;3.13;;;;;;;;;;5053941;28;20450;-57
2022/01/28 02:21:12;;;;;;;4.10;3.17;;;;;;;;;;5053903;28;20407;-57
2022/01/28 02:23:39;;;;;;;2.93;2.80;;;;;;;;;;5053799;28;20502;-62
2022/01/28 02:26:06;;;;;;;3.83;3.30;;;;;;;;;;5053679;28;20513;-59
2022/01/28 02:28:37;;;;;;;3.20;3.10;;;;;;;;;;5053866;28;20408;-61
2022/01/28 02:31:04;;;;;;;8.90;3.67;;;;;;;;;;5053719;28;20907;-60
2022/01/28 02:33:30;;;;;;;5.90;3.43;;;;;;;;;;5053917;28;20412;-57
2022/01/28 02:36:02;;;;;;;8.30;3.10;;;;;;;;;;5053637;28;20400;-58
2022/01/28 02:38:28;;;;;;;6.73;3.03;;;;;;;;;;5053868;28;20404;-59
2022/01/28 02:40:57;;;;;;;13.20;4.10;;;;;;;;;;5053653;28;20423;-59
2022/01/28 02:43:31;;;;;;;15.07;3.60;;;;;;;;;;5053499;28;20407;-59
2022/01/28 02:46:04;;;;;;;7.80;3.60;;;;;;;;;;5053210;28;20521;-59
2022/01/28 02:48:32;;;;;;;6.50;3.30;;;;;;;;;;5053804;28;20408;-60
2022/01/28 02:53:27;;;;;;;5.93;3.70;;;;;;;;;;5053639;28;20447;-63
2022/01/28 02:55:59;;;;;;;10.47;3.70;;;;;;;;;;5053564;28;20408;-59
2022/01/28 02:58:26;;;;;;;8.40;3.90;;;;;;;;;;5053224;28;20416;-62
2022/01/28 03:00:54;;;;;;;3.60;3.10;;;;;;;;;;5053456;28;20461;-61
2022/01/28 03:03:22;;;;;;;4.20;3.00;;;;;;;;;;5053171;28;20511;-61
2022/01/28 03:05:49;;;;;;;6.60;3.30;;;;;;;;;;5053288;28;20546;-63
2022/01/28 03:08:15;;;;;;;10.10;3.40;;;;;;;;;;5053152;28;20435;-60
2022/01/28 03:10:48;;;;;;;4.93;3.93;;;;;;;;;;5053285;28;20416;-61
2022/01/28 03:13:28;;;;;;;8.87;3.07;;;;;;;;;;5053257;28;20499;-61
2022/01/28 03:16:05;;;;;;;9.70;3.30;;;;;;;;;;5052917;28;20510;-60
2022/01/28 03:18:41;;;;;;;3.67;3.37;;;;;;;;;;5053194;28;20411;-60
2022/01/28 03:21:19;;;;;;;7.33;2.70;;;;;;;;;;5052969;28;20414;-62
2022/01/28 03:23:45;;;;;;;3.73;3.30;;;;;;;;;;5052173;28;20466;-63
2022/01/28 03:26:11;;;;;;;3.20;2.90;;;;;;;;;;5052781;28;20820;-57
2022/01/28 03:28:37;;;;;;;8.53;3.73;;;;;;;;;;5053012;28;20406;-57
2022/01/28 03:31:03;;;;;;;5.03;3.63;;;;;;;;;;5052871;28;20499;-57
2022/01/28 03:33:29;;;;;;;8.67;3.27;;;;;;;;;;5052765;28;20411;-58
2022/01/28 03:35:55;;;;;;;3.53;3.23;;;;;;;;;;5052685;28;20503;-60
2022/01/28 03:38:21;;;;;;;5.80;3.87;;;;;;;;;;5052634;28;20414;-62
2022/01/28 03:40:49;;;;;;;7.90;3.50;;;;;;;;;;5052987;28;20860;-59
2022/01/28 03:43:15;;;;;;;3.83;2.93;;;;;;;;;;5052692;28;20407;-61
2022/01/28 03:45:41;;;;;;;5.40;3.10;;;;;;;;;;5052430;28;20475;-61
2022/01/28 03:48:07;;;;;;;11.73;3.40;;;;;;;;;;5052512;28;20435;-62
2022/01/28 03:50:34;;;;;;;2.90;2.70;;;;;;;;;;5052610;28;20416;-64
2022/01/28 03:53:03;;;;;;;5.77;3.53;;;;;;;;;;5052440;28;20415;-60
2022/01/28 03:55:29;;;;;;;10.17;3.73;;;;;;;;;;5052448;28;20408;-62
2022/01/28 03:57:55;;;;;;;3.13;2.50;;;;;;;;;;5052423;28;20403;-63
2022/01/28 04:00:26;;;;;;;6.83;3.43;;;;;;;;;;5052455;28;20847;-62
2022/01/28 04:03:02;;;;;;;4.63;3.27;;;;;;;;;;5052431;28;20901;-62
2022/01/28 04:13:33;;;;;;;8.97;4.00;;;;;;;;;;5052405;28;20414;-62
2022/01/28 04:18:25;;;;;;;5.70;3.47;;;;;;;;;;5052485;28;20849;-63
2022/01/28 04:20:51;;;;;;;6.30;3.67;;;;;;;;;;5050931;28;20420;-58
2022/01/28 04:23:18;;;;;;;10.20;3.80;;;;;;;;;;5052068;28;20513;-59
2022/01/28 04:25:44;;;;;;;6.57;3.70;;;;;;;;;;5052232;28;20495;-60
2022/01/28 04:28:10;;;;;;;5.93;3.40;;;;;;;;;;5052184;28;20412;-57
2022/01/28 04:30:36;;;;;;;9.60;3.23;;;;;;;;;;5052026;28;20419;-58
2022/01/28 04:33:02;;;;;;;12.13;4.20;;;;;;;;;;5052145;28;20431;-61
2022/01/28 04:35:28;;;;;;;3.73;3.17;;;;;;;;;;5054927;28;20411;-57
2022/01/28 04:40:33;;;;;;;5.90;3.40;;;;;;;;;;5056155;28;20437;-57
2022/01/28 04:43:19;;;;;;;10.03;3.57;;;;;;;;;;5055741;28;20804;-58
2022/01/28 04:46:01;;;;;;;6.73;3.73;;;;;;;;;;5056046;28;20463;-56
2022/01/28 04:48:45;;;;;;;7.50;4.10;;;;;;;;;;5055707;28;20427;-58
2022/01/28 04:56:42;;;;;;;7.63;3.50;;;;;;;;;;5055717;28;20445;-57
2022/01/28 04:59:31;;;;;;;5.53;3.60;;;;;;;;;;5055764;28;20415;-56
2022/01/28 05:27:05;;;;;;;9.93;4.20;;;;;;;;;;5050015;28;20562;-58
2022/01/28 05:29:31;;;;;;;9.00;4.43;;;;;;;;;;5054882;28;20412;-58
2022/01/28 05:31:57;;;;;;;8.03;3.83;;;;;;;;;;5054839;28;20865;-57
2022/01/28 05:34:25;;;;;;;12.50;5.10;;;;;;;;;;5053489;28;20447;-56
2022/01/28 05:36:52;;;;;;;14.80;4.30;;;;;;;;;;5053354;28;20981;-57
2022/01/28 05:39:18;;;;;;;12.13;3.67;;;;;;;;;;5055051;28;20781;-58
2022/01/28 05:41:44;;;;;;;9.73;3.67;;;;;;;;;;5054779;28;20419;-58
2022/01/28 05:44:10;;;;;;;8.17;4.00;;;;;;;;;;5054591;28;20404;-58
2022/01/28 05:46:36;;;;;;;8.20;4.00;;;;;;;;;;5053364;28;20956;-57
2022/01/28 05:49:02;;;;;;;16.40;4.30;;;;;;;;;;5053979;28;20952;-58
2022/01/28 05:51:28;;;;;;;6.90;4.60;;;;;;;;;;5054245;28;20908;-60
2022/01/28 05:53:57;;;;;;;19.27;4.80;;;;;;;;;;5053938;28;20404;-64
2022/01/28 05:56:24;;;;;;;13.40;5.03;;;;;;;;;;5053981;28;20403;-60
2022/01/28 05:58:50;;;;;;;10.23;4.00;;;;;;;;;;5052301;28;20443;-58
2022/01/28 06:01:16;;;;;;;7.13;4.20;;;;;;;;;;5054104;28;20457;-60
2022/01/28 06:03:44;;;;;;;7.50;4.80;;;;;;;;;;5053861;28;20435;-58
2022/01/28 06:06:18;;;;;;;6.60;3.57;;;;;;;;;;5051143;28;20458;-58
2022/01/28 06:08:44;;;;;;;6.00;3.10;;;;;;;;;;5053601;28;20765;-55
2022/01/28 06:11:10;;;;;;;8.67;4.20;;;;;;;;;;5051164;28;20408;-55
2022/01/28 06:13:36;;;;;;;9.90;3.67;;;;;;;;;;5053583;28;20403;-57
2022/01/28 06:16:02;;;;;;;8.20;3.47;;;;;;;;;;5053697;28;20418;-56
2022/01/28 06:18:28;;;;;;;8.87;3.40;;;;;;;;;;5053322;28;20396;-55
2022/01/28 06:20:54;;;;;;;3.17;2.90;;;;;;;;;;5053658;28;20423;-56
2022/01/28 06:23:20;;;;;;;4.73;2.90;;;;;;;;;;5053235;28;20451;-56
2022/01/28 06:25:48;;;;;;;4.07;3.67;;;;;;;;;;5053259;28;20823;-55
2022/01/28 06:28:14;;;;;;;3.73;3.27;;;;;;;;;;5053335;28;20427;-57
2022/01/28 06:30:40;;;;;;;3.60;3.30;;;;;;;;;;5053359;28;20439;-56
2022/01/28 06:33:06;;;;;;;11.23;4.03;;;;;;;;;;5053024;28;20499;-57
2022/01/28 06:35:32;;;;;;;6.43;3.43;;;;;;;;;;5053076;28;20412;-59
2022/01/28 06:37:58;;;;;;;8.47;3.60;;;;;;;;;;5052830;28;20408;-55
2022/01/28 06:40:24;;;;;;;10.47;3.70;;;;;;;;;;5052841;28;20423;-56
2022/01/28 06:42:51;;;;;;;5.37;3.77;;;;;;;;;;5052636;28;20410;-60
2022/01/28 06:45:17;;;;;;;4.67;3.20;;;;;;;;;;5051495;28;20812;-56
2022/01/28 06:47:43;;;;;;;16.03;4.20;;;;;;;;;;5052873;28;20415;-58
2022/01/28 06:50:10;;;;;;;4.63;3.57;;;;;;;;;;5052991;28;20412;-57
2022/01/28 06:52:36;;;;;;;5.63;3.57;;;;;;;;;;5053090;28;20957;-58
2022/01/28 06:55:03;;;;;;;13.83;4.07;;;;;;;;;;5052987;28;20411;-60
2022/01/28 06:57:29;;;;;;;18.03;4.17;;;;;;;;;;5053203;28;20446;-61
2022/01/28 06:59:55;;;;;;;6.00;3.97;;;;;;;;;;5053139;28;20412;-58
2022/01/28 07:02:21;;;;;;;7.63;4.37;;;;;;;;;;5052939;28;20416;-59
2022/01/28 07:04:47;;;;;;;13.93;4.73;;;;;;;;;;5053096;28;20497;-58
2022/01/28 07:07:14;;;;;;;5.83;3.80;;;;;;;;;;5053044;28;20966;-57
2022/01/28 07:09:40;;;;;;;10.00;3.60;;;;;;;;;;5053139;28;20416;-59
2022/01/28 07:12:06;;;;;;;9.00;3.80;;;;;;;;;;5052880;28;20439;-57
2022/01/28 07:14:32;;;;;;;7.17;3.63;;;;;;;;;;5052835;28;20412;-59
2022/01/28 07:16:58;;;;;;;13.17;4.30;;;;;;;;;;5052852;28;20423;-60
2022/01/28 07:19:24;;;;;;;15.10;4.70;;;;;;;;;;5052795;28;20469;-60
2022/01/28 07:21:50;;;;;;;5.33;3.90;;;;;;;;;;5052910;28;20923;-59
2022/01/28 07:24:16;;;;;;;7.50;3.60;;;;;;;;;;5050652;28;20484;-60
2022/01/28 07:26:44;;;;;;;17.03;3.90;;;;;;;;;;5051196;28;20489;-61
2022/01/28 07:29:11;;;;;;;4.63;3.60;;;;;;;;;;5068341;28;20421;-58
2022/01/28 07:31:38;;;;;;;11.80;3.93;;;;;;;;;;5069549;28;20790;-58
2022/01/28 07:34:06;;;;;;;12.90;3.87;;;;;;;;;;5052163;28;20502;-62
2022/01/28 07:36:32;;;;;;;7.53;3.60;;;;;;;;;;5050561;28;20920;-57
2022/01/28 07:38:58;;;;;;;13.80;4.30;;;;;;;;;;5051528;28;20427;-60
2022/01/28 07:41:23;;;;;;;5.30;3.47;;;;;;;;;;5059250;28;20470;-62
2022/01/28 07:43:49;;;;;;;23.57;3.80;;;;;;;;;;5051897;28;20403;-57
2022/01/28 07:46:15;;;;;;;4.93;3.90;;;;;;;;;;5052001;28;20475;-62
2022/01/28 07:48:41;;;;;;;14.07;4.10;;;;;;;;;;5050504;28;20420;-59
2022/01/28 07:51:07;;;;;;;9.53;4.57;;;;;;;;;;5051823;28;20412;-63
2022/01/28 07:53:33;;;;;;;8.10;3.80;;;;;;;;;;5051670;28;20439;-60
2022/01/28 07:55:59;;;;;;;8.73;4.33;;;;;;;;;;5051865;28;20408;-63
2022/01/28 07:58:25;;;;;;;19.27;4.67;;;;;;;;;;5051734;28;21022;-62
2022/01/28 08:00:51;;;;;;;14.23;4.00;;;;;;;;;;5051815;28;20416;-59
2022/01/28 08:03:17;;;;;;;11.70;4.10;;;;;;;;;;5051857;28;20408;-55
2022/01/28 08:05:43;;;;;;;9.93;4.63;;;;;;;;;;5051475;28;20467;-55
2022/01/28 08:08:12;;;;;;;6.67;3.50;;;;;;;;;;5051899;28;20475;-57
2022/01/28 08:10:38;;;;;;;6.97;3.77;;;;;;;;;;5055143;28;20420;-55
2022/01/28 08:13:05;;;;;;;10.10;4.90;;;;;;;;;;5055852;28;20438;-57
2022/01/28 08:15:31;;;;;;;13.10;4.33;;;;;;;;;;5055696;28;20906;-59
2022/01/28 08:17:57;;;;;;;10.33;4.27;;;;;;;;;;5055615;28;20850;-57
2022/01/28 08:20:23;;;;;;;9.23;3.67;;;;;;;;;;5055240;28;20411;-58
2022/01/28 08:22:53;;;;;;;30.03;4.30;;;;;;;;;;5055114;28;20526;-59
2022/01/28 08:25:20;;;;;;;3.23;3.00;;;;;;;;;;5055259;28;20507;-59
2022/01/28 08:27:47;;;;;;;7.67;3.60;;;;;;;;;;5055630;28;20407;-60
2022/01/28 08:30:14;;;;;;;10.50;4.10;;;;;;;;;;5055122;28;20414;-59
2022/01/28 08:32:40;;;;;;;6.00;4.07;;;;;;;;;;5067061;28;20410;-57
2022/01/28 08:35:06;;;;;;;7.07;3.77;;;;;;;;;;5075054;28;20415;-58
2022/01/28 08:37:32;;;;;;;12.13;3.60;;;;;;;;;;5075019;28;20533;-59
2022/01/28 08:39:59;;;;;;;11.27;5.97;;;;;;;;;;5074900;28;20505;-60
2022/01/28 08:42:25;;;;;;;6.10;3.40;;;;;;;;;;5075224;28;20779;-59
2022/01/28 08:44:51;;;;;;;10.30;3.90;;;;;;;;;;5074965;28;20450;-60
2022/01/28 08:47:17;;;;;;;5.87;3.90;;;;;;;;;;5073533;28;20415;-59
2022/01/28 08:49:43;;;;;;;25.53;3.70;;;;;;;;;;5055020;28;20406;-58
2022/01/28 08:52:09;;;;;;;8.53;3.50;;;;;;;;;;5053555;28;20423;-64
2022/01/28 08:54:35;;;;;;;6.10;4.27;;;;;;;;;;5053744;28;20411;-65
2022/01/28 08:57:01;;;;;;;12.00;4.40;;;;;;;;;;5054894;28;20490;-60
2022/01/28 08:59:27;;;;;;;11.87;3.80;;;;;;;;;;5054888;28;20434;-62
2022/01/28 09:01:53;;;;;;;14.07;4.73;;;;;;;;;;5054571;28;20446;-61
2022/01/28 09:04:19;;;;;;;7.93;3.80;;;;;;;;;;5054664;28;20420;-59
2022/01/28 09:06:46;;;;;;;12.13;4.10;;;;;;;;;;5053428;28;20462;-61
2022/01/28 09:09:12;;;;;;;14.80;4.73;;;;;;;;;;5054757;28;20408;-60
2022/01/28 09:14:33;;;;;;;5.23;4.10;;;;;;;;;;5049702;28;20404;-62
2022/01/28 09:16:59;;;;;;;11.63;4.57;;;;;;;;;;5054518;28;20900;-64
2022/01/28 09:19:25;;;;;;;7.67;4.30;;;;;;;;;;5054285;28;20415;-63
2022/01/28 09:21:51;;;;;;;15.10;4.90;;;;;;;;;;5052891;28;20744;-59
2022/01/28 09:24:17;;;;;;;11.63;4.90;;;;;;;;;;5054301;28;20455;-64
2022/01/28 09:26:44;;;;;;;7.23;3.90;;;;;;;;;;5052985;28;20474;-62
2022/01/28 09:29:10;;;;;;;14.20;4.90;;;;;;;;;;5052776;28;20420;-58
2022/01/28 09:31:36;;;;;;;16.77;4.80;;;;;;;;;;5056159;28;20732;-64
2022/01/28 09:34:02;;;;;;;25.27;5.30;;;;;;;;;;5073891;28;20409;-62
2022/01/28 09:36:28;;;;;;;7.13;4.40;;;;;;;;;;5074309;28;20415;-61
2022/01/28 09:38:54;;;;;;;7.90;4.63;;;;;;;;;;5072626;28;20521;-57
2022/01/28 09:41:22;;;;;;;14.73;4.67;;;;;;;;;;5073630;28;20419;-57
2022/01/28 09:43:48;;;;;;;9.93;4.10;;;;;;;;;;5073851;28;20490;-58
2022/01/28 09:46:14;;;;;;;6.97;4.30;;;;;;;;;;5073948;28;20468;-58
2022/01/28 09:48:40;;;;;;;22.43;4.83;;;;;;;;;;5060865;28;20500;-55
2022/01/28 09:51:06;;;;;;;12.60;4.70;;;;;;;;;;5054210;28;20425;-60
2022/01/28 09:53:33;;;;;;;6.20;3.53;;;;;;;;;;5053491;28;20416;-58
2022/01/28 09:55:59;;;;;;;13.03;5.47;;;;;;;;;;5052454;28;20416;-56
2022/01/28 09:58:25;;;;;;;11.50;4.53;;;;;;;;;;5053552;28;20423;-56
2022/01/28 10:00:51;;;;;;;15.60;4.50;;;;;;;;;;5053619;28;20757;-57
2022/01/28 10:03:18;;;;;;;12.17;4.63;;;;;;;;;;5052494;28;20454;-58
2022/01/28 10:05:45;;;;;;;8.70;4.53;;;;;;;;;;5053608;28;20868;-59
2022/01/28 10:08:16;;;;;;;14.77;4.83;;;;;;;;;;5052203;28;20939;-57
2022/01/28 10:10:48;;;;;;;16.60;5.37;;;;;;;;;;5053226;28;20909;-58
2022/01/28 10:13:18;;;;;;;17.70;5.27;;;;;;;;;;5053492;28;20408;-59
2022/01/28 10:16:04;;;;;;;20.30;5.70;;;;;;;;;;5053408;28;20423;-57
2022/01/28 10:18:40;;;;;;;8.70;4.07;;;;;;;;;;5053129;28;20435;-57
2022/01/28 10:21:15;;;;;;;19.20;4.90;;;;;;;;;;5053271;28;20399;-60
2022/01/28 10:23:41;;;;;;;7.20;4.07;;;;;;;;;;5053176;28;20487;-60
2022/01/28 10:26:07;;;;;;;24.80;5.73;;;;;;;;;;5053196;28;20467;-58
2022/01/28 10:28:33;;;;;;;11.00;4.30;;;;;;;;;;5053151;28;20395;-56
2022/01/28 10:31:04;;;;;;;17.00;5.87;;;;;;;;;;5052519;28;20494;-60
2022/01/28 10:33:30;;;;;;;10.70;4.03;;;;;;;;;;5072098;28;20407;-58
2022/01/28 10:36:03;;;;;;;4.47;3.80;;;;;;;;;;5072996;28;20407;-59
2022/01/28 10:38:34;;;;;;;16.57;5.13;;;;;;;;;;5072974;28;20399;-59
2022/01/28 10:41:06;;;;;;;15.13;5.10;;;;;;;;;;5072751;28;20514;-64
2022/01/28 10:43:32;;;;;;;18.67;4.73;;;;;;;;;;5072994;28;20486;-58
2022/01/28 10:46:05;;;;;;;11.17;4.53;;;;;;;;;;5072705;28;21018;-62
2022/01/28 10:48:32;;;;;;;18.13;4.50;;;;;;;;;;5059530;28;20498;-58
2022/01/28 10:50:58;;;;;;;19.20;4.70;;;;;;;;;;5052704;28;20466;-57
2022/01/28 10:53:27;;;;;;;9.33;4.80;;;;;;;;;;5052606;28;20742;-59
2022/01/28 10:55:54;;;;;;;15.00;5.33;;;;;;;;;;5052757;28;20416;-60
2022/01/28 10:58:24;;;;;;;10.33;4.40;;;;;;;;;;5052508;28;20411;-60
2022/01/28 11:00:57;;;;;;;15.50;4.70;;;;;;;;;;5052630;28;20457;-57
2022/01/28 11:03:27;;;;;;;12.77;4.70;;;;;;;;;;5052756;28;20407;-61
2022/01/28 11:05:58;;;;;;;21.73;5.10;;;;;;;;;;5052653;28;21023;-61
2022/01/28 11:08:26;;;;;;;19.87;5.20;;;;;;;;;;5052501;28;20396;-62
2022/01/28 11:10:52;;;;;;;14.03;5.17;;;;;;;;;;5052227;28;20468;-60
2022/01/28 11:13:19;;;;;;;11.53;4.67;;;;;;;;;;5052495;28;20406;-62
2022/01/28 11:15:45;;;;;;;21.73;4.87;;;;;;;;;;5050992;28;20447;-62
2022/01/28 11:18:12;;;;;;;11.50;4.80;;;;;;;;;;5050952;28;20411;-58
2022/01/28 11:20:43;;;;;;;17.77;5.03;;;;;;;;;;5052194;28;20418;-61
2022/01/28 11:23:24;;;;;;;27.60;5.27;;;;;;;;;;5051798;28;20494;-61
2022/01/28 11:26:19;;;;;;;14.10;4.93;;;;;;;;;;5051711;28;20463;-63
2022/01/28 11:28:47;;;;;;;22.10;4.80;;;;;;;;;;5047369;28;20553;-61
2022/01/28 11:31:13;;;;;;;10.07;4.67;;;;;;;;;;5051830;28;20416;-58
2022/01/28 11:33:43;;;;;;;17.47;5.73;;;;;;;;;;5051952;28;20426;-61
2022/01/28 11:36:09;;;;;;;11.70;5.00;;;;;;;;;;5052405;28;20827;-59
2022/01/28 11:38:37;;;;;;;10.53;4.67;;;;;;;;;;5051874;28;20498;-62
2022/01/28 11:41:07;;;;;;;10.10;4.00;;;;;;;;;;5051969;28;20427;-59
2022/01/28 11:43:34;;;;;;;8.30;3.90;;;;;;;;;;5051115;28;20408;-61
2022/01/28 11:46:09;;;;;;;18.83;4.40;;;;;;;;;;5051759;28;20562;-57
2022/01/28 11:48:55;;;;;;;11.27;4.80;;;;;;;;;;5051943;28;20411;-61
2022/01/28 11:51:35;;;;;;;15.90;4.73;;;;;;;;;;5047585;28;20411;-61
2022/01/28 11:54:03;;;;;;;8.17;4.37;;;;;;;;;;5051677;28;20423;-61
2022/01/28 11:56:29;;;;;;;18.03;5.43;;;;;;;;;;5051466;28;20422;-61
2022/01/28 11:59:07;;;;;;;19.87;5.20;;;;;;;;;;5051523;28;20499;-59
2022/01/28 12:01:36;;;;;;;10.83;4.80;;;;;;;;;;5051666;28;20419;-62
2022/01/28 12:04:21;;;;;;;14.13;5.30;;;;;;;;;;5051719;28;20425;-60
2022/01/28 12:06:50;;;;;;;14.90;5.00;;;;;;;;;;5051424;28;20470;-61
2022/01/28 12:09:18;;;;;;;15.77;5.10;;;;;;;;;;5051939;28;20483;-61
2022/01/28 12:11:45;;;;;;;11.97;4.20;;;;;;;;;;5051587;28;20519;-62
2022/01/28 12:14:13;;;;;;;16.33;5.80;;;;;;;;;;5051588;28;20497;-64
2022/01/28 12:16:42;;;;;;;8.57;4.40;;;;;;;;;;5051626;28;20419;-61
2022/01/28 12:19:18;;;;;;;23.20;5.10;;;;;;;;;;5051243;28;20407;-63
2022/01/28 12:22:04;;;;;;;22.33;4.90;;;;;;;;;;5051594;28;20756;-61
2022/01/28 12:24:31;;;;;;;9.37;4.13;;;;;;;;;;5051459;28;20486;-59
2022/01/28 12:27:02;;;;;;;17.17;4.80;;;;;;;;;;5051092;28;20462;-60
2022/01/28 12:29:32;;;;;;;18.07;4.87;;;;;;;;;;5051391;28;20415;-64
2022/01/28 12:31:59;;;;;;;10.47;4.93;;;;;;;;;;5057516;28;20950;-62
2022/01/28 12:34:25;;;;;;;14.13;5.57;;;;;;;;;;5071339;28;20445;-62
2022/01/28 12:36:52;;;;;;;12.50;4.97;;;;;;;;;;5071240;28;20403;-59
2022/01/28 12:39:32;;;;;;;16.67;4.70;;;;;;;;;;5071369;28;21014;-60
2022/01/28 12:42:11;;;;;;;11.63;4.90;;;;;;;;;;5071482;28;20414;-61
2022/01/28 12:44:38;;;;;;;7.47;4.70;;;;;;;;;;5071038;28;20467;-62
2022/01/28 12:47:09;;;;;;;21.33;5.00;;;;;;;;;;5070778;28;20478;-62
2022/01/28 12:49:36;;;;;;;14.50;4.53;;;;;;;;;;5031283;28;20408;-59
2022/01/28 12:52:04;;;;;;;12.43;5.33;;;;;;;;;;5031196;28;20440;-59
2022/01/28 12:54:31;;;;;;;14.97;4.90;;;;;;;;;;5031341;28;20500;-63
2022/01/28 12:56:57;;;;;;;11.17;4.03;;;;;;;;;;5034214;28;20500;-61
2022/01/28 12:59:23;;;;;;;12.40;5.20;;;;;;;;;;5035024;28;20415;-62
2022/01/28 13:01:52;;;;;;;15.77;4.97;;;;;;;;;;5033107;28;20428;-59
2022/01/28 13:04:22;;;;;;;18.50;5.47;;;;;;;;;;5034471;28;20420;-59
2022/01/28 13:09:17;;;;;;;12.03;4.43;;;;;;;;;;5034919;28;20409;-61
2022/01/28 13:11:48;;;;;;;22.00;5.10;;;;;;;;;;5034891;28;20821;-60
2022/01/28 13:14:14;;;;;;;11.13;5.10;;;;;;;;;;5034608;28;20412;-57
2022/01/28 13:16:44;;;;;;;20.87;4.93;;;;;;;;;;5034391;28;20507;-58
2022/01/28 13:19:11;;;;;;;10.50;3.83;;;;;;;;;;5034578;28;20404;-59
2022/01/28 13:21:38;;;;;;;15.47;4.23;;;;;;;;;;5034322;28;20518;-64
2022/01/28 13:24:24;;;;;;;15.03;4.97;;;;;;;;;;5034246;28;20487;-61
2022/01/28 13:26:56;;;;;;;11.37;4.73;;;;;;;;;;5034017;28;20570;-62
2022/01/28 13:29:51;;;;;;;20.07;6.30;;;;;;;;;;5034165;28;20443;-61
2022/01/28 13:32:20;;;;;;;9.10;4.37;;;;;;;;;;5051803;28;20981;-62
2022/01/28 13:34:56;;;;;;;11.70;4.70;;;;;;;;;;5074010;28;21050;-63
2022/01/28 13:37:31;;;;;;;9.97;4.63;;;;;;;;;;5072511;28;20990;-58
2022/01/28 13:39:58;;;;;;;10.70;4.10;;;;;;;;;;5073760;28;20417;-57
2022/01/28 13:42:24;;;;;;;16.80;4.73;;;;;;;;;;5073593;28;20419;-61
2022/01/28 13:44:51;;;;;;;8.10;4.10;;;;;;;;;;5073274;28;20430;-61
2022/01/28 13:47:17;;;;;;;17.10;4.47;;;;;;;;;;5072458;28;20874;-58
2022/01/28 13:49:44;;;;;;;8.47;4.70;;;;;;;;;;5054028;28;20764;-61
2022/01/28 13:52:12;;;;;;;9.43;4.60;;;;;;;;;;5053458;28;20965;-59
2022/01/28 13:54:38;;;;;;;8.57;4.20;;;;;;;;;;5053506;28;20423;-62
2022/01/28 13:57:06;;;;;;;19.97;5.30;;;;;;;;;;5052391;28;20424;-63
2022/01/28 13:59:33;;;;;;;8.93;3.93;;;;;;;;;;5053537;28;20941;-62
2022/01/28 14:01:59;;;;;;;13.17;4.40;;;;;;;;;;5053626;28;20461;-61
2022/01/28 14:04:27;;;;;;;32.17;5.40;;;;;;;;;;5052045;28;20941;-61
2022/01/28 14:07:13;;;;;;;7.70;4.50;;;;;;;;;;5051192;28;20479;-61
2022/01/28 14:09:43;;;;;;;15.20;5.53;;;;;;;;;;5053343;28;20912;-62
2022/01/28 14:12:12;;;;;;;13.90;4.50;;;;;;;;;;5053457;28;20765;-62
2022/01/28 14:14:46;;;;;;;23.93;4.63;;;;;;;;;;5052032;28;20411;-62
2022/01/28 14:17:12;;;;;;;22.03;5.47;;;;;;;;;;5052100;28;20514;-63
2022/01/28 14:19:39;;;;;;;13.03;4.87;;;;;;;;;;5053265;28;20499;-63
2022/01/28 14:22:08;;;;;;;17.27;5.00;;;;;;;;;;5052947;28;20441;-62
2022/01/28 14:24:36;;;;;;;12.90;3.83;;;;;;;;;;5053043;28;20420;-60
2022/01/28 14:32:07;;;;;;;10.43;4.57;;;;;;;;;;5060808;28;21055;-56
2022/01/28 14:34:33;;;;;;;11.57;4.50;;;;;;;;;;5071635;28;20475;-59
2022/01/28 14:37:02;;;;;;;10.00;4.10;;;;;;;;;;5072884;28;20399;-63
2022/01/28 14:39:28;;;;;;;10.50;4.30;;;;;;;;;;5060274;28;20416;-65
2022/01/28 14:42:01;;;;;;;9.20;4.17;;;;;;;;;;5051818;28;20765;-63
2022/01/28 14:44:27;;;;;;;11.53;4.80;;;;;;;;;;5052787;28;20415;-56
2022/01/28 14:46:53;;;;;;;13.27;5.40;;;;;;;;;;5052475;28;20471;-59
2022/01/28 14:49:19;;;;;;;8.47;4.50;;;;;;;;;;5051148;28;20416;-59
2022/01/28 14:51:51;;;;;;;11.30;4.27;;;;;;;;;;5052786;28;20427;-57
2022/01/28 14:54:17;;;;;;;8.83;5.53;;;;;;;;;;5052821;28;20415;-64
2022/01/28 14:56:43;;;;;;;6.30;4.07;;;;;;;;;;5052622;28;20497;-60
2022/01/28 14:59:09;;;;;;;10.40;4.70;;;;;;;;;;5052532;28;20408;-64
2022/01/28 15:01:35;;;;;;;13.47;4.17;;;;;;;;;;5052182;28;20768;-62
2022/01/28 15:04:01;;;;;;;19.77;4.43;;;;;;;;;;5052624;28;20431;-63
2022/01/28 15:06:27;;;;;;;11.20;4.20;;;;;;;;;;5052285;28;20478;-62
2022/01/28 15:08:55;;;;;;;10.70;5.00;;;;;;;;;;5052597;28;20410;-58
2022/01/28 15:11:34;;;;;;;10.67;4.20;;;;;;;;;;5052046;28;20553;-65
2022/01/28 15:14:01;;;;;;;14.60;3.90;;;;;;;;;;5052208;28;20403;-63
2022/01/28 15:16:27;;;;;;;12.47;5.37;;;;;;;;;;5052055;28;20765;-57
2022/01/28 15:18:53;;;;;;;8.47;4.97;;;;;;;;;;5051149;28;20915;-62
2022/01/28 15:21:19;;;;;;;11.67;4.90;;;;;;;;;;5051995;28;20411;-59
2022/01/28 15:23:45;;;;;;;16.37;4.73;;;;;;;;;;5051832;28;20473;-62
2022/01/28 15:26:11;;;;;;;17.83;5.70;;;;;;;;;;5051049;28;20990;-58
2022/01/28 15:28:48;;;;;;;11.97;4.73;;;;;;;;;;5050858;28;20975;-56
2022/01/28 15:36:41;;;;;;;13.30;4.77;;;;;;;;;;5052093;28;20408;-57
2022/01/28 15:39:07;;;;;;;14.83;4.90;;;;;;;;;;5052039;28;20399;-65
2022/01/28 15:41:33;;;;;;;10.80;4.90;;;;;;;;;;5050667;28;20451;-55
2022/01/28 15:43:59;;;;;;;14.20;5.10;;;;;;;;;;5052008;28;20506;-55
2022/01/28 15:46:25;;;;;;;6.97;4.50;;;;;;;;;;5051596;28;20827;-55
2022/01/28 15:48:52;;;;;;;15.03;3.70;;;;;;;;;;5052028;28;20407;-58
2022/01/28 15:51:18;;;;;;;12.57;4.20;;;;;;;;;;5050628;28;20429;-58
2022/01/28 15:53:44;;;;;;;17.00;4.40;;;;;;;;;;5051838;28;20462;-54
2022/01/28 15:56:12;;;;;;;11.80;4.23;;;;;;;;;;5051641;28;20515;-60
2022/01/28 15:58:38;;;;;;;17.63;5.50;;;;;;;;;;5051883;28;20412;-64
2022/01/28 16:01:04;;;;;;;12.87;4.80;;;;;;;;;;5050272;28;20428;-68
2022/01/28 16:03:30;;;;;;;10.50;4.10;;;;;;;;;;5050204;28;20492;-60
2022/01/28 16:05:59;;;;;;;16.20;4.87;;;;;;;;;;5050454;28;20474;-56
2022/01/28 16:08:25;;;;;;;10.83;4.67;;;;;;;;;;5050577;28;20810;-63
2022/01/28 16:19:01;;;;;;;8.90;3.90;;;;;;;;;;5050417;28;20431;-70
2022/01/28 16:21:28;;;;;;;13.10;5.03;;;;;;;;;;5051009;28;20407;-69
2022/01/28 16:23:56;;;;;;;19.30;6.50;;;;;;;;;;5049985;28;20467;-67
2022/01/28 16:26:22;;;;;;;8.27;4.70;;;;;;;;;;5050960;28;20474;-62